sensor_id;sensor_type;location;lat;lon;timestamp;temperature;humidity
70107;DHT22;57473;37.508;15.080;2023-06-05T00:00:23;21.10;87.10
70107;DHT22;57473;37.508;15.080;2023-06-05T00:03:09;21.10;86.70
70107;DHT22;57473;37.508;15.080;2023-06-05T00:05:36;21.10;86.30
70107;DHT22;57473;37.508;15.080;2023-06-05T00:08:04;21.10;85.80
70107;DHT22;57473;37.508;15.080;2023-06-05T00:10:32;21.10;85.50
70107;DHT22;57473;37.508;15.080;2023-06-05T00:13:03;21.10;85.50
70107;DHT22;57473;37.508;15.080;2023-06-05T00:15:30;21.10;85.70
70107;DHT22;57473;37.508;15.080;2023-06-05T00:18:01;21.10;85.90
70107;DHT22;57473;37.508;15.080;2023-06-05T00:20:31;21.10;86.10
70107;DHT22;57473;37.508;15.080;2023-06-05T00:22:58;21.10;86.20
70107;DHT22;57473;37.508;15.080;2023-06-05T00:25:25;21.10;86.00
70107;DHT22;57473;37.508;15.080;2023-06-05T00:27:53;21.10;86.20
70107;DHT22;57473;37.508;15.080;2023-06-05T00:30:20;21.10;86.10
70107;DHT22;57473;37.508;15.080;2023-06-05T00:32:48;21.10;86.40
70107;DHT22;57473;37.508;15.080;2023-06-05T00:35:15;21.10;86.10
70107;DHT22;57473;37.508;15.080;2023-06-05T00:37:43;21.00;85.90
70107;DHT22;57473;37.508;15.080;2023-06-05T00:40:14;21.10;85.80
70107;DHT22;57473;37.508;15.080;2023-06-05T00:42:41;21.00;86.10
70107;DHT22;57473;37.508;15.080;2023-06-05T00:45:09;21.00;86.20
70107;DHT22;57473;37.508;15.080;2023-06-05T00:47:38;21.00;86.30
70107;DHT22;57473;37.508;15.080;2023-06-05T00:50:07;21.00;86.20
70107;DHT22;57473;37.508;15.080;2023-06-05T00:52:36;21.00;85.50
70107;DHT22;57473;37.508;15.080;2023-06-05T00:55:03;21.00;85.60
70107;DHT22;57473;37.508;15.080;2023-06-05T00:57:31;21.00;85.30
70107;DHT22;57473;37.508;15.080;2023-06-05T01:00:02;21.10;85.30
70107;DHT22;57473;37.508;15.080;2023-06-05T01:02:30;21.10;85.30
70107;DHT22;57473;37.508;15.080;2023-06-05T01:04:58;21.10;85.40
70107;DHT22;57473;37.508;15.080;2023-06-05T01:07:25;21.10;85.40
70107;DHT22;57473;37.508;15.080;2023-06-05T01:09:55;21.10;85.50
70107;DHT22;57473;37.508;15.080;2023-06-05T01:12:28;21.10;85.30
70107;DHT22;57473;37.508;15.080;2023-06-05T01:15:01;21.10;85.50
70107;DHT22;57473;37.508;15.080;2023-06-05T01:17:30;21.10;85.60
70107;DHT22;57473;37.508;15.080;2023-06-05T01:20:01;21.20;85.50
70107;DHT22;57473;37.508;15.080;2023-06-05T01:22:30;21.10;85.50
70107;DHT22;57473;37.508;15.080;2023-06-05T01:24:57;21.20;85.40
70107;DHT22;57473;37.508;15.080;2023-06-05T01:33:15;21.10;85.20
70107;DHT22;57473;37.508;15.080;2023-06-05T01:35:45;21.10;85.00
70107;DHT22;57473;37.508;15.080;2023-06-05T01:38:19;21.20;84.90
70107;DHT22;57473;37.508;15.080;2023-06-05T01:40:50;21.20;84.90
70107;DHT22;57473;37.508;15.080;2023-06-05T01:43:19;21.10;85.00
70107;DHT22;57473;37.508;15.080;2023-06-05T01:45:47;21.20;84.80
70107;DHT22;57473;37.508;15.080;2023-06-05T01:48:15;21.20;84.70
70107;DHT22;57473;37.508;15.080;2023-06-05T01:50:43;21.20;84.20
70107;DHT22;57473;37.508;15.080;2023-06-05T01:53:10;21.20;84.00
70107;DHT22;57473;37.508;15.080;2023-06-05T01:55:39;21.10;83.90
70107;DHT22;57473;37.508;15.080;2023-06-05T01:58:08;21.10;84.10
70107;DHT22;57473;37.508;15.080;2023-06-05T02:00:35;21.10;84.10
70107;DHT22;57473;37.508;15.080;2023-06-05T02:03:03;21.10;84.30
70107;DHT22;57473;37.508;15.080;2023-06-05T02:05:31;21.10;84.40
70107;DHT22;57473;37.508;15.080;2023-06-05T02:08:01;21.00;84.70
70107;DHT22;57473;37.508;15.080;2023-06-05T02:10:32;21.00;85.00
70107;DHT22;57473;37.508;15.080;2023-06-05T02:13:01;21.00;85.30
70107;DHT22;57473;37.508;15.080;2023-06-05T02:15:30;21.10;85.50
70107;DHT22;57473;37.508;15.080;2023-06-05T02:18:00;21.00;85.70
70107;DHT22;57473;37.508;15.080;2023-06-05T02:20:31;21.10;85.70
70107;DHT22;57473;37.508;15.080;2023-06-05T02:22:59;21.10;86.00
70107;DHT22;57473;37.508;15.080;2023-06-05T02:25:28;21.10;86.10
70107;DHT22;57473;37.508;15.080;2023-06-05T02:27:56;21.00;86.10
70107;DHT22;57473;37.508;15.080;2023-06-05T02:30:24;21.00;86.10
70107;DHT22;57473;37.508;15.080;2023-06-05T02:32:52;21.00;85.80
70107;DHT22;57473;37.508;15.080;2023-06-05T02:35:29;21.00;85.90
70107;DHT22;57473;37.508;15.080;2023-06-05T02:37:57;21.00;85.80
70107;DHT22;57473;37.508;15.080;2023-06-05T02:40:25;21.00;85.80
70107;DHT22;57473;37.508;15.080;2023-06-05T02:42:52;21.00;85.70
70107;DHT22;57473;37.508;15.080;2023-06-05T02:45:19;21.00;85.80
70107;DHT22;57473;37.508;15.080;2023-06-05T02:47:51;21.00;85.90
70107;DHT22;57473;37.508;15.080;2023-06-05T02:50:18;21.00;86.40
70107;DHT22;57473;37.508;15.080;2023-06-05T02:52:50;21.00;86.70
70107;DHT22;57473;37.508;15.080;2023-06-05T02:55:24;20.90;87.00
70107;DHT22;57473;37.508;15.080;2023-06-05T02:57:53;20.90;87.30
70107;DHT22;57473;37.508;15.080;2023-06-05T03:00:33;20.90;87.60
70107;DHT22;57473;37.508;15.080;2023-06-05T03:03:00;20.90;87.80
70107;DHT22;57473;37.508;15.080;2023-06-05T03:05:30;20.80;88.00
70107;DHT22;57473;37.508;15.080;2023-06-05T03:08:03;20.80;88.10
70107;DHT22;57473;37.508;15.080;2023-06-05T03:10:35;20.80;88.20
70107;DHT22;57473;37.508;15.080;2023-06-05T03:13:04;20.80;88.10
70107;DHT22;57473;37.508;15.080;2023-06-05T03:15:34;20.80;87.90
70107;DHT22;57473;37.508;15.080;2023-06-05T03:18:03;20.90;87.80
70107;DHT22;57473;37.508;15.080;2023-06-05T03:20:31;20.80;87.60
70107;DHT22;57473;37.508;15.080;2023-06-05T03:23:00;20.80;87.60
70107;DHT22;57473;37.508;15.080;2023-06-05T03:25:27;20.80;87.70
70107;DHT22;57473;37.508;15.080;2023-06-05T03:27:56;20.90;87.70
70107;DHT22;57473;37.508;15.080;2023-06-05T03:30:27;20.90;88.20
70107;DHT22;57473;37.508;15.080;2023-06-05T03:32:57;20.80;90.10
70107;DHT22;57473;37.508;15.080;2023-06-05T03:35:25;20.70;90.80
70107;DHT22;57473;37.508;15.080;2023-06-05T03:37:56;20.60;91.40
70107;DHT22;57473;37.508;15.080;2023-06-05T03:40:23;20.60;91.50
70107;DHT22;57473;37.508;15.080;2023-06-05T03:42:51;20.50;91.80
70107;DHT22;57473;37.508;15.080;2023-06-05T03:45:19;20.50;92.00
70107;DHT22;57473;37.508;15.080;2023-06-05T03:47:46;20.50;93.00
70107;DHT22;57473;37.508;15.080;2023-06-05T03:50:17;20.50;92.70
70107;DHT22;57473;37.508;15.080;2023-06-05T03:52:45;20.40;92.60
70107;DHT22;57473;37.508;15.080;2023-06-05T03:55:12;20.40;93.30
70107;DHT22;57473;37.508;15.080;2023-06-05T03:57:40;20.40;94.90
70107;DHT22;57473;37.508;15.080;2023-06-05T04:00:11;20.40;94.30
70107;DHT22;57473;37.508;15.080;2023-06-05T04:02:55;20.40;94.80
70107;DHT22;57473;37.508;15.080;2023-06-05T04:05:23;20.40;95.60
70107;DHT22;57473;37.508;15.080;2023-06-05T04:07:52;20.40;95.20
70107;DHT22;57473;37.508;15.080;2023-06-05T04:10:19;20.40;94.90
70107;DHT22;57473;37.508;15.080;2023-06-05T04:12:47;20.40;94.50
70107;DHT22;57473;37.508;15.080;2023-06-05T04:15:15;20.40;94.00
70107;DHT22;57473;37.508;15.080;2023-06-05T04:17:42;20.50;93.30
70107;DHT22;57473;37.508;15.080;2023-06-05T04:20:10;20.50;93.00
70107;DHT22;57473;37.508;15.080;2023-06-05T04:22:43;20.60;92.90
70107;DHT22;57473;37.508;15.080;2023-06-05T04:25:13;20.60;92.40
70107;DHT22;57473;37.508;15.080;2023-06-05T04:27:44;20.70;92.30
70107;DHT22;57473;37.508;15.080;2023-06-05T04:30:13;20.70;91.30
70107;DHT22;57473;37.508;15.080;2023-06-05T04:32:42;20.80;90.90
70107;DHT22;57473;37.508;15.080;2023-06-05T04:35:11;20.90;90.00
70107;DHT22;57473;37.508;15.080;2023-06-05T04:37:39;21.00;90.10
70107;DHT22;57473;37.508;15.080;2023-06-05T04:40:08;21.00;89.40
70107;DHT22;57473;37.508;15.080;2023-06-05T04:42:39;21.20;89.40
70107;DHT22;57473;37.508;15.080;2023-06-05T04:45:09;21.30;88.40
70107;DHT22;57473;37.508;15.080;2023-06-05T04:47:40;21.40;87.50
70107;DHT22;57473;37.508;15.080;2023-06-05T04:50:08;21.40;87.50
70107;DHT22;57473;37.508;15.080;2023-06-05T04:52:39;21.50;87.30
70107;DHT22;57473;37.508;15.080;2023-06-05T04:55:27;21.60;87.20
70107;DHT22;57473;37.508;15.080;2023-06-05T04:57:55;21.60;88.00
70107;DHT22;57473;37.508;15.080;2023-06-05T05:00:48;21.60;88.50
70107;DHT22;57473;37.508;15.080;2023-06-05T05:03:18;21.60;88.90
70107;DHT22;57473;37.508;15.080;2023-06-05T05:05:46;21.70;88.80
70107;DHT22;57473;37.508;15.080;2023-06-05T05:08:14;21.70;89.30
70107;DHT22;57473;37.508;15.080;2023-06-05T05:10:41;21.70;89.90
70107;DHT22;57473;37.508;15.080;2023-06-05T05:13:09;21.70;89.90
70107;DHT22;57473;37.508;15.080;2023-06-05T05:15:36;21.80;89.90
70107;DHT22;57473;37.508;15.080;2023-06-05T05:18:04;21.80;89.40
70107;DHT22;57473;37.508;15.080;2023-06-05T05:20:33;21.80;89.90
70107;DHT22;57473;37.508;15.080;2023-06-05T05:23:04;21.80;89.90
70107;DHT22;57473;37.508;15.080;2023-06-05T05:25:37;21.90;89.70
70107;DHT22;57473;37.508;15.080;2023-06-05T05:28:04;22.00;89.90
70107;DHT22;57473;37.508;15.080;2023-06-05T05:30:32;22.00;89.00
70107;DHT22;57473;37.508;15.080;2023-06-05T05:33:01;21.90;90.40
70107;DHT22;57473;37.508;15.080;2023-06-05T05:35:28;21.90;89.90
70107;DHT22;57473;37.508;15.080;2023-06-05T05:37:56;21.90;90.30
70107;DHT22;57473;37.508;15.080;2023-06-05T05:40:24;21.90;90.50
70107;DHT22;57473;37.508;15.080;2023-06-05T05:42:51;21.90;90.70
70107;DHT22;57473;37.508;15.080;2023-06-05T05:45:19;21.90;90.60
70107;DHT22;57473;37.508;15.080;2023-06-05T05:47:46;21.90;90.40
70107;DHT22;57473;37.508;15.080;2023-06-05T05:50:14;21.80;90.80
70107;DHT22;57473;37.508;15.080;2023-06-05T05:52:41;21.90;90.80
70107;DHT22;57473;37.508;15.080;2023-06-05T05:55:10;21.90;90.70
70107;DHT22;57473;37.508;15.080;2023-06-05T05:57:40;21.90;90.90
70107;DHT22;57473;37.508;15.080;2023-06-05T06:00:07;21.90;90.20
70107;DHT22;57473;37.508;15.080;2023-06-05T06:02:39;21.90;90.30
70107;DHT22;57473;37.508;15.080;2023-06-05T06:05:08;21.90;90.60
70107;DHT22;57473;37.508;15.080;2023-06-05T06:07:36;22.00;90.20
70107;DHT22;57473;37.508;15.080;2023-06-05T06:10:03;22.00;90.30
70107;DHT22;57473;37.508;15.080;2023-06-05T06:12:31;21.90;90.40
70107;DHT22;57473;37.508;15.080;2023-06-05T06:14:58;21.80;91.20
70107;DHT22;57473;37.508;15.080;2023-06-05T06:17:26;21.80;91.30
70107;DHT22;57473;37.508;15.080;2023-06-05T06:19:54;21.70;92.00
70107;DHT22;57473;37.508;15.080;2023-06-05T06:22:22;21.70;92.70
70107;DHT22;57473;37.508;15.080;2023-06-05T06:24:49;21.70;94.00
70107;DHT22;57473;37.508;15.080;2023-06-05T06:27:19;21.70;94.00
70107;DHT22;57473;37.508;15.080;2023-06-05T06:30:01;21.70;93.70
70107;DHT22;57473;37.508;15.080;2023-06-05T06:32:29;21.60;92.20
70107;DHT22;57473;37.508;15.080;2023-06-05T06:34:57;21.60;92.40
70107;DHT22;57473;37.508;15.080;2023-06-05T06:37:24;21.60;92.60
70107;DHT22;57473;37.508;15.080;2023-06-05T06:39:52;21.60;92.50
70107;DHT22;57473;37.508;15.080;2023-06-05T06:42:19;21.60;93.20
70107;DHT22;57473;37.508;15.080;2023-06-05T06:45:12;21.60;92.90
70107;DHT22;57473;37.508;15.080;2023-06-05T06:47:39;21.60;93.70
70107;DHT22;57473;37.508;15.080;2023-06-05T06:50:09;21.70;93.30
70107;DHT22;57473;37.508;15.080;2023-06-05T06:52:36;21.80;93.50
70107;DHT22;57473;37.508;15.080;2023-06-05T06:55:04;21.80;94.00
70107;DHT22;57473;37.508;15.080;2023-06-05T06:57:32;21.80;93.50
70107;DHT22;57473;37.508;15.080;2023-06-05T06:59:59;21.80;94.20
70107;DHT22;57473;37.508;15.080;2023-06-05T07:02:27;21.80;93.90
70107;DHT22;57473;37.508;15.080;2023-06-05T07:04:54;21.80;92.60
70107;DHT22;57473;37.508;15.080;2023-06-05T07:07:22;21.80;92.00
70107;DHT22;57473;37.508;15.080;2023-06-05T07:09:50;21.90;92.80
70107;DHT22;57473;37.508;15.080;2023-06-05T07:12:20;21.90;91.90
70107;DHT22;57473;37.508;15.080;2023-06-05T07:14:50;21.80;91.30
70107;DHT22;57473;37.508;15.080;2023-06-05T07:17:17;21.70;92.20
70107;DHT22;57473;37.508;15.080;2023-06-05T07:19:45;21.70;92.80
70107;DHT22;57473;37.508;15.080;2023-06-05T07:22:12;21.70;92.50
70107;DHT22;57473;37.508;15.080;2023-06-05T07:24:42;21.60;94.10
70107;DHT22;57473;37.508;15.080;2023-06-05T07:27:09;21.40;95.80
70107;DHT22;57473;37.508;15.080;2023-06-05T07:29:37;21.40;96.90
70107;DHT22;57473;37.508;15.080;2023-06-05T07:32:04;21.30;98.50
70107;DHT22;57473;37.508;15.080;2023-06-05T07:34:34;21.20;97.40
70107;DHT22;57473;37.508;15.080;2023-06-05T07:37:04;21.20;97.10
70107;DHT22;57473;37.508;15.080;2023-06-05T07:39:31;21.20;97.50
70107;DHT22;57473;37.508;15.080;2023-06-05T07:41:59;21.20;98.10
70107;DHT22;57473;37.508;15.080;2023-06-05T07:44:27;21.20;98.10
70107;DHT22;57473;37.508;15.080;2023-06-05T07:46:54;21.20;98.00
70107;DHT22;57473;37.508;15.080;2023-06-05T07:49:23;21.20;97.30
70107;DHT22;57473;37.508;15.080;2023-06-05T07:51:51;21.10;97.90
70107;DHT22;57473;37.508;15.080;2023-06-05T07:54:18;21.10;98.30
70107;DHT22;57473;37.508;15.080;2023-06-05T07:56:48;21.10;99.60
70107;DHT22;57473;37.508;15.080;2023-06-05T07:59:18;20.90;99.90
70107;DHT22;57473;37.508;15.080;2023-06-05T08:01:51;20.60;99.90
70107;DHT22;57473;37.508;15.080;2023-06-05T08:04:19;20.50;99.90
70107;DHT22;57473;37.508;15.080;2023-06-05T08:06:47;20.40;99.90
70107;DHT22;57473;37.508;15.080;2023-06-05T08:09:14;20.30;99.90
70107;DHT22;57473;37.508;15.080;2023-06-05T08:11:42;20.20;99.90
70107;DHT22;57473;37.508;15.080;2023-06-05T08:14:10;20.10;99.90
70107;DHT22;57473;37.508;15.080;2023-06-05T08:16:37;20.00;99.90
70107;DHT22;57473;37.508;15.080;2023-06-05T08:19:04;20.10;99.90
70107;DHT22;57473;37.508;15.080;2023-06-05T08:21:33;20.10;99.90
70107;DHT22;57473;37.508;15.080;2023-06-05T08:24:00;20.20;99.90
70107;DHT22;57473;37.508;15.080;2023-06-05T08:26:28;20.30;99.90
70107;DHT22;57473;37.508;15.080;2023-06-05T08:28:55;20.40;99.90
70107;DHT22;57473;37.508;15.080;2023-06-05T08:31:23;20.60;99.90
70107;DHT22;57473;37.508;15.080;2023-06-05T08:33:51;20.60;99.90
70107;DHT22;57473;37.508;15.080;2023-06-05T08:36:18;20.70;99.90
70107;DHT22;57473;37.508;15.080;2023-06-05T08:38:45;20.80;99.90
70107;DHT22;57473;37.508;15.080;2023-06-05T08:41:14;20.90;99.90
70107;DHT22;57473;37.508;15.080;2023-06-05T08:43:43;21.10;99.50
70107;DHT22;57473;37.508;15.080;2023-06-05T08:46:14;21.30;99.30
70107;DHT22;57473;37.508;15.080;2023-06-05T08:48:44;21.50;96.10
70107;DHT22;57473;37.508;15.080;2023-06-05T08:51:14;21.80;92.00
70107;DHT22;57473;37.508;15.080;2023-06-05T08:56:25;22.10;89.60
70107;DHT22;57473;37.508;15.080;2023-06-05T08:58:54;22.20;86.60
70107;DHT22;57473;37.508;15.080;2023-06-05T09:01:23;22.30;82.80
70107;DHT22;57473;37.508;15.080;2023-06-05T09:03:50;22.40;82.70
70107;DHT22;57473;37.508;15.080;2023-06-05T09:06:18;22.40;83.00
70107;DHT22;57473;37.508;15.080;2023-06-05T09:08:45;22.50;79.90
70107;DHT22;57473;37.508;15.080;2023-06-05T09:13:51;22.70;79.80
70107;DHT22;57473;37.508;15.080;2023-06-05T09:16:21;22.90;78.40
70107;DHT22;57473;37.508;15.080;2023-06-05T09:18:55;23.00;77.80
70107;DHT22;57473;37.508;15.080;2023-06-05T09:21:25;23.20;76.20
70107;DHT22;57473;37.508;15.080;2023-06-05T09:29:19;23.50;71.80
70107;DHT22;57473;37.508;15.080;2023-06-05T09:31:46;23.30;73.10
70107;DHT22;57473;37.508;15.080;2023-06-05T09:34:24;23.30;72.50
70107;DHT22;57473;37.508;15.080;2023-06-05T09:36:52;23.40;71.50
70107;DHT22;57473;37.508;15.080;2023-06-05T09:39:22;23.40;70.20
70107;DHT22;57473;37.508;15.080;2023-06-05T09:41:52;23.30;72.30
70107;DHT22;57473;37.508;15.080;2023-06-05T09:44:21;23.60;70.90
70107;DHT22;57473;37.508;15.080;2023-06-05T09:51:58;23.50;69.30
70107;DHT22;57473;37.508;15.080;2023-06-05T09:54:30;23.50;69.60
70107;DHT22;57473;37.508;15.080;2023-06-05T09:57:03;23.50;67.50
70107;DHT22;57473;37.508;15.080;2023-06-05T09:59:32;23.60;67.30
70107;DHT22;57473;37.508;15.080;2023-06-05T10:02:05;23.70;64.80
70107;DHT22;57473;37.508;15.080;2023-06-05T10:04:38;23.80;64.90
70107;DHT22;57473;37.508;15.080;2023-06-05T10:07:09;23.90;65.40
70107;DHT22;57473;37.508;15.080;2023-06-05T10:09:37;23.80;68.60
70107;DHT22;57473;37.508;15.080;2023-06-05T10:12:05;23.90;70.80
70107;DHT22;57473;37.508;15.080;2023-06-05T10:14:42;24.00;70.00
70107;DHT22;57473;37.508;15.080;2023-06-05T10:17:13;24.30;70.90
70107;DHT22;57473;37.508;15.080;2023-06-05T10:19:44;24.70;71.20
70107;DHT22;57473;37.508;15.080;2023-06-05T10:22:12;25.10;69.40
70107;DHT22;57473;37.508;15.080;2023-06-05T10:24:57;25.00;68.40
70107;DHT22;57473;37.508;15.080;2023-06-05T10:35:56;25.40;69.60
70107;DHT22;57473;37.508;15.080;2023-06-05T10:38:28;25.30;70.20
70107;DHT22;57473;37.508;15.080;2023-06-05T10:41:00;25.60;69.10
70107;DHT22;57473;37.508;15.080;2023-06-05T10:43:52;26.00;69.00
70107;DHT22;57473;37.508;15.080;2023-06-05T10:49:08;26.40;66.90
70107;DHT22;57473;37.508;15.080;2023-06-05T10:54:12;25.70;67.30
70107;DHT22;57473;37.508;15.080;2023-06-05T10:59:20;25.40;69.40
70107;DHT22;57473;37.508;15.080;2023-06-05T11:17:43;24.50;75.50
70107;DHT22;57473;37.508;15.080;2023-06-05T11:28:02;23.60;80.20
70107;DHT22;57473;37.508;15.080;2023-06-05T11:30:38;23.80;80.40
70107;DHT22;57473;37.508;15.080;2023-06-05T11:33:09;23.70;78.80
70107;DHT22;57473;37.508;15.080;2023-06-05T11:35:45;23.40;81.00
70107;DHT22;57473;37.508;15.080;2023-06-05T11:38:15;23.10;83.60
70107;DHT22;57473;37.508;15.080;2023-06-05T11:40:46;22.90;85.60
70107;DHT22;57473;37.508;15.080;2023-06-05T11:43:14;22.70;86.50
70107;DHT22;57473;37.508;15.080;2023-06-05T11:45:58;22.60;86.70
70107;DHT22;57473;37.508;15.080;2023-06-05T11:48:26;22.50;85.50
70107;DHT22;57473;37.508;15.080;2023-06-05T11:50:59;22.50;86.50
70107;DHT22;57473;37.508;15.080;2023-06-05T11:53:28;22.70;87.10
70107;DHT22;57473;37.508;15.080;2023-06-05T11:55:57;23.00;85.50
70107;DHT22;57473;37.508;15.080;2023-06-05T11:58:35;23.20;82.50
70107;DHT22;57473;37.508;15.080;2023-06-05T12:01:08;23.50;81.70
70107;DHT22;57473;37.508;15.080;2023-06-05T12:03:46;23.60;80.20
70107;DHT22;57473;37.508;15.080;2023-06-05T12:06:15;23.60;82.90
70107;DHT22;57473;37.508;15.080;2023-06-05T12:08:43;23.70;83.00
70107;DHT22;57473;37.508;15.080;2023-06-05T12:11:23;23.70;82.70
70107;DHT22;57473;37.508;15.080;2023-06-05T12:13:52;23.40;84.50
70107;DHT22;57473;37.508;15.080;2023-06-05T12:16:33;23.10;86.40
70107;DHT22;57473;37.508;15.080;2023-06-05T12:19:03;23.10;86.00
70107;DHT22;57473;37.508;15.080;2023-06-05T12:21:43;23.10;86.60
70107;DHT22;57473;37.508;15.080;2023-06-05T12:24:11;23.20;85.70
70107;DHT22;57473;37.508;15.080;2023-06-05T12:26:52;23.30;84.30
70107;DHT22;57473;37.508;15.080;2023-06-05T12:29:27;23.30;84.10
70107;DHT22;57473;37.508;15.080;2023-06-05T12:32:01;23.30;81.50
70107;DHT22;57473;37.508;15.080;2023-06-05T12:34:43;23.40;81.10
70107;DHT22;57473;37.508;15.080;2023-06-05T12:37:31;23.50;78.30
70107;DHT22;57473;37.508;15.080;2023-06-05T12:40:02;23.80;76.60
70107;DHT22;57473;37.508;15.080;2023-06-05T12:42:35;24.30;73.60
70107;DHT22;57473;37.508;15.080;2023-06-05T12:45:04;25.00;71.50
70107;DHT22;57473;37.508;15.080;2023-06-05T12:47:32;25.60;68.60
70107;DHT22;57473;37.508;15.080;2023-06-05T12:50:01;25.90;66.50
70107;DHT22;57473;37.508;15.080;2023-06-05T12:52:29;26.20;65.30
70107;DHT22;57473;37.508;15.080;2023-06-05T12:54:57;27.00;63.70
70107;DHT22;57473;37.508;15.080;2023-06-05T12:57:24;28.00;60.80
70107;DHT22;57473;37.508;15.080;2023-06-05T12:59:53;27.90;60.30
70107;DHT22;57473;37.508;15.080;2023-06-05T13:02:22;28.00;60.20
70107;DHT22;57473;37.508;15.080;2023-06-05T13:04:50;27.80;60.50
70107;DHT22;57473;37.508;15.080;2023-06-05T13:07:18;27.20;62.60
70107;DHT22;57473;37.508;15.080;2023-06-05T13:09:46;26.50;64.90
70107;DHT22;57473;37.508;15.080;2023-06-05T13:12:14;25.80;68.00
70107;DHT22;57473;37.508;15.080;2023-06-05T13:14:41;25.10;70.80
70107;DHT22;57473;37.508;15.080;2023-06-05T13:17:08;24.90;71.60
70107;DHT22;57473;37.508;15.080;2023-06-05T13:19:36;24.50;73.40
70107;DHT22;57473;37.508;15.080;2023-06-05T13:22:04;24.20;75.60
70107;DHT22;57473;37.508;15.080;2023-06-05T13:24:31;24.10;76.30
70107;DHT22;57473;37.508;15.080;2023-06-05T13:26:59;23.90;76.70
70107;DHT22;57473;37.508;15.080;2023-06-05T13:29:26;24.00;76.50
70107;DHT22;57473;37.508;15.080;2023-06-05T13:31:53;23.80;76.70
70107;DHT22;57473;37.508;15.080;2023-06-05T13:34:21;23.80;77.10
70107;DHT22;57473;37.508;15.080;2023-06-05T13:36:48;23.80;77.60
70107;DHT22;57473;37.508;15.080;2023-06-05T13:39:20;23.60;78.00
70107;DHT22;57473;37.508;15.080;2023-06-05T13:41:47;23.50;78.80
70107;DHT22;57473;37.508;15.080;2023-06-05T13:44:15;23.50;78.40
70107;DHT22;57473;37.508;15.080;2023-06-05T13:46:42;23.50;77.30
70107;DHT22;57473;37.508;15.080;2023-06-05T13:49:11;23.50;77.50
70107;DHT22;57473;37.508;15.080;2023-06-05T13:51:38;23.30;77.40
70107;DHT22;57473;37.508;15.080;2023-06-05T13:54:06;23.30;76.60
70107;DHT22;57473;37.508;15.080;2023-06-05T13:56:33;23.40;77.10
70107;DHT22;57473;37.508;15.080;2023-06-05T13:59:01;23.50;77.00
70107;DHT22;57473;37.508;15.080;2023-06-05T14:01:28;23.50;76.60
70107;DHT22;57473;37.508;15.080;2023-06-05T14:03:55;23.50;76.80
70107;DHT22;57473;37.508;15.080;2023-06-05T14:06:23;23.40;77.10
70107;DHT22;57473;37.508;15.080;2023-06-05T14:08:50;23.40;76.90
70107;DHT22;57473;37.508;15.080;2023-06-05T14:11:18;23.30;77.30
70107;DHT22;57473;37.508;15.080;2023-06-05T14:13:45;23.30;76.90
70107;DHT22;57473;37.508;15.080;2023-06-05T14:16:13;23.30;76.70
70107;DHT22;57473;37.508;15.080;2023-06-05T14:18:41;23.40;76.30
70107;DHT22;57473;37.508;15.080;2023-06-05T14:21:08;23.30;75.70
70107;DHT22;57473;37.508;15.080;2023-06-05T14:23:35;23.20;75.80
70107;DHT22;57473;37.508;15.080;2023-06-05T14:26:04;23.20;75.30
70107;DHT22;57473;37.508;15.080;2023-06-05T14:28:31;23.10;76.00
70107;DHT22;57473;37.508;15.080;2023-06-05T14:30:59;23.20;76.10
70107;DHT22;57473;37.508;15.080;2023-06-05T14:33:26;23.20;75.30
70107;DHT22;57473;37.508;15.080;2023-06-05T14:35:54;23.00;74.70
70107;DHT22;57473;37.508;15.080;2023-06-05T14:38:21;23.00;76.00
70107;DHT22;57473;37.508;15.080;2023-06-05T14:40:49;22.90;77.50
70107;DHT22;57473;37.508;15.080;2023-06-05T14:43:18;22.90;76.00
70107;DHT22;57473;37.508;15.080;2023-06-05T14:45:46;22.90;74.90
70107;DHT22;57473;37.508;15.080;2023-06-05T14:48:13;22.90;75.40
70107;DHT22;57473;37.508;15.080;2023-06-05T14:50:41;22.80;78.30
70107;DHT22;57473;37.508;15.080;2023-06-05T14:53:08;22.70;79.90
70107;DHT22;57473;37.508;15.080;2023-06-05T14:55:35;22.50;78.40
70107;DHT22;57473;37.508;15.080;2023-06-05T14:58:04;22.20;80.60
70107;DHT22;57473;37.508;15.080;2023-06-05T15:00:32;21.80;84.00
70107;DHT22;57473;37.508;15.080;2023-06-05T15:03:00;21.50;87.00
70107;DHT22;57473;37.508;15.080;2023-06-05T15:05:27;21.30;90.90
70107;DHT22;57473;37.508;15.080;2023-06-05T15:07:55;21.10;92.70
70107;DHT22;57473;37.508;15.080;2023-06-05T15:10:22;21.10;92.90
70107;DHT22;57473;37.508;15.080;2023-06-05T15:12:50;21.00;93.40
70107;DHT22;57473;37.508;15.080;2023-06-05T15:15:26;21.00;93.90
70107;DHT22;57473;37.508;15.080;2023-06-05T15:17:53;20.90;92.90
70107;DHT22;57473;37.508;15.080;2023-06-05T15:20:21;20.90;93.00
70107;DHT22;57473;37.508;15.080;2023-06-05T15:22:52;20.90;93.30
70107;DHT22;57473;37.508;15.080;2023-06-05T15:25:39;20.90;90.90
70107;DHT22;57473;37.508;15.080;2023-06-05T15:28:07;20.90;91.10
70107;DHT22;57473;37.508;15.080;2023-06-05T15:30:34;21.00;90.40
70107;DHT22;57473;37.508;15.080;2023-06-05T15:33:01;21.00;88.90
70107;DHT22;57473;37.508;15.080;2023-06-05T15:35:30;21.00;87.70
70107;DHT22;57473;37.508;15.080;2023-06-05T15:37:57;20.90;87.50
70107;DHT22;57473;37.508;15.080;2023-06-05T15:40:25;20.90;87.30
70107;DHT22;57473;37.508;15.080;2023-06-05T15:43:07;20.90;87.60
70107;DHT22;57473;37.508;15.080;2023-06-05T15:45:35;20.90;88.80
70107;DHT22;57473;37.508;15.080;2023-06-05T15:48:03;21.00;85.00
70107;DHT22;57473;37.508;15.080;2023-06-05T15:50:31;20.90;85.30
70107;DHT22;57473;37.508;15.080;2023-06-05T15:52:59;20.80;85.40
70107;DHT22;57473;37.508;15.080;2023-06-05T15:55:26;20.70;88.00
70107;DHT22;57473;37.508;15.080;2023-06-05T15:57:54;20.70;89.30
70107;DHT22;57473;37.508;15.080;2023-06-05T16:00:21;20.70;88.00
70107;DHT22;57473;37.508;15.080;2023-06-05T16:02:53;20.70;88.00
70107;DHT22;57473;37.508;15.080;2023-06-05T16:05:21;20.70;88.10
70107;DHT22;57473;37.508;15.080;2023-06-05T16:07:49;20.80;88.00
70107;DHT22;57473;37.508;15.080;2023-06-05T16:10:19;20.80;88.40
70107;DHT22;57473;37.508;15.080;2023-06-05T16:12:47;20.90;86.90
70107;DHT22;57473;37.508;15.080;2023-06-05T16:15:14;21.00;86.50
70107;DHT22;57473;37.508;15.080;2023-06-05T16:17:42;21.00;86.20
70107;DHT22;57473;37.508;15.080;2023-06-05T16:20:09;21.00;85.40
70107;DHT22;57473;37.508;15.080;2023-06-05T16:22:37;20.90;85.80
70107;DHT22;57473;37.508;15.080;2023-06-05T16:25:05;21.00;86.40
70107;DHT22;57473;37.508;15.080;2023-06-05T16:27:32;21.00;86.60
70107;DHT22;57473;37.508;15.080;2023-06-05T16:30:00;21.10;87.00